createdAt,value
2022-07-26T00:01:05.894Z,2.20
2022-07-26T00:03:33.616Z,2.22
2022-07-26T00:06:01.443Z,2.25
2022-07-26T00:08:29.255Z,2.10
2022-07-26T00:10:57.115Z,2.30
2022-07-26T00:13:24.923Z,1.90
2022-07-26T00:15:57.994Z,1.95
2022-07-26T00:18:25.830Z,1.90
2022-07-26T00:20:53.609Z,2.10
2022-07-26T00:23:23.504Z,2.28
2022-07-26T00:25:51.370Z,2.00
2022-07-26T00:28:19.164Z,1.90
2022-07-26T00:30:47.009Z,1.80
2022-07-26T00:33:14.822Z,2.13
2022-07-26T00:35:42.551Z,1.90
2022-07-26T00:38:10.375Z,1.43
2022-07-26T00:40:38.093Z,2.00
2022-07-26T00:43:05.901Z,1.75
2022-07-26T00:45:33.596Z,1.47
2022-07-26T00:48:04.671Z,1.70
2022-07-26T00:50:32.427Z,1.65
2022-07-26T00:53:01.365Z,1.73
2022-07-26T00:55:29.396Z,1.40
2022-07-26T00:57:57.133Z,1.73
2022-07-26T01:00:28.672Z,1.67
2022-07-26T01:02:56.763Z,1.60
2022-07-26T01:05:24.755Z,1.77
2022-07-26T01:07:52.658Z,1.90
2022-07-26T01:10:20.665Z,1.97
2022-07-26T01:12:48.392Z,1.73
2022-07-26T01:15:16.188Z,1.85
2022-07-26T01:17:44.024Z,1.60
2022-07-26T01:20:12.371Z,1.80
2022-07-26T01:22:40.145Z,1.63
2022-07-26T01:25:08.121Z,1.75
2022-07-26T01:27:39.619Z,1.80
2022-07-26T01:30:08.927Z,1.60
2022-07-26T01:32:36.754Z,1.80
2022-07-26T01:35:05.192Z,2.20
2022-07-26T01:37:35.958Z,1.80
2022-07-26T01:40:03.894Z,2.38
2022-07-26T01:42:32.621Z,2.03
2022-07-26T01:45:01.346Z,1.77
2022-07-26T01:47:29.128Z,1.85
2022-07-26T01:49:56.880Z,2.28
2022-07-26T01:52:24.667Z,2.20
2022-07-26T01:54:52.431Z,3.97
2022-07-26T01:57:20.235Z,2.78
2022-07-26T01:59:48.049Z,2.40
2022-07-26T02:02:15.837Z,2.10
2022-07-26T02:04:58.777Z,2.00
2022-07-26T02:07:33.286Z,1.40
2022-07-26T02:10:01.176Z,2.20
2022-07-26T02:12:32.595Z,3.22
2022-07-26T02:15:00.392Z,1.30
2022-07-26T02:17:28.093Z,1.23
2022-07-26T02:19:55.923Z,1.10
2022-07-26T02:22:23.656Z,1.10
2022-07-26T02:24:51.476Z,1.10
2022-07-26T02:27:19.345Z,1.60
2022-07-26T02:29:47.068Z,1.48
2022-07-26T02:32:14.925Z,1.02
2022-07-26T02:34:45.612Z,1.30
2022-07-26T02:37:13.423Z,0.90
2022-07-26T02:39:41.135Z,0.90
2022-07-26T02:42:08.971Z,1.50
2022-07-26T02:44:36.871Z,0.93
2022-07-26T02:47:04.784Z,0.80
2022-07-26T02:49:32.613Z,0.90
2022-07-26T02:52:00.469Z,0.80
2022-07-26T02:54:28.254Z,0.60
2022-07-26T02:56:55.952Z,0.80
2022-07-26T02:59:23.731Z,0.90
2022-07-26T03:01:51.442Z,0.55
2022-07-26T03:04:19.303Z,0.70
2022-07-26T03:06:46.927Z,0.90
2022-07-26T03:09:14.650Z,1.25
2022-07-26T03:11:42.320Z,0.70
2022-07-26T03:14:10.561Z,0.60
2022-07-26T03:16:38.586Z,0.88
2022-07-26T03:19:06.236Z,0.77
2022-07-26T03:21:33.947Z,0.57
2022-07-26T03:24:01.606Z,1.33
2022-07-26T03:26:30.190Z,0.60
2022-07-26T03:28:58.005Z,0.70
2022-07-26T03:31:27.142Z,0.60
2022-07-26T03:33:57.482Z,0.65
2022-07-26T03:36:29.070Z,0.60
2022-07-26T03:38:56.767Z,0.60
2022-07-26T03:41:24.472Z,0.57
2022-07-26T03:43:52.140Z,0.60
2022-07-26T03:46:19.944Z,0.70
2022-07-26T03:48:47.754Z,0.60
2022-07-26T03:51:15.500Z,0.70
2022-07-26T03:53:43.222Z,0.70
2022-07-26T03:56:29.429Z,0.73
2022-07-26T03:58:57.212Z,0.65
2022-07-26T04:01:25.149Z,0.60
2022-07-26T04:03:52.830Z,0.70
2022-07-26T04:06:20.908Z,0.52
2022-07-26T04:08:50.858Z,0.68
2022-07-26T04:11:18.593Z,0.80
2022-07-26T04:13:46.241Z,0.73
2022-07-26T04:16:14.615Z,0.60
2022-07-26T04:18:42.670Z,0.70
2022-07-26T04:21:10.517Z,0.50
2022-07-26T04:23:38.153Z,0.73
2022-07-26T04:26:05.970Z,0.30
2022-07-26T04:28:33.702Z,0.40
2022-07-26T04:31:01.629Z,0.60
2022-07-26T04:33:29.489Z,0.50
2022-07-26T04:35:57.122Z,0.40
2022-07-26T04:38:24.833Z,0.40
2022-07-26T04:40:52.540Z,0.63
2022-07-26T04:43:20.444Z,0.40
2022-07-26T04:45:48.195Z,0.43
2022-07-26T04:48:16.164Z,0.40
2022-07-26T04:50:44.123Z,0.52
2022-07-26T04:53:11.852Z,0.60
2022-07-26T04:55:39.565Z,0.60
2022-07-26T04:58:07.302Z,0.77
2022-07-26T05:00:51.099Z,0.70
2022-07-26T05:03:25.316Z,1.13
2022-07-26T05:05:53.241Z,0.80
2022-07-26T05:08:21.155Z,0.73
2022-07-26T05:10:54.900Z,1.10
2022-07-26T05:13:29.511Z,0.70
2022-07-26T05:15:59.555Z,0.82
2022-07-26T05:18:27.593Z,0.60
2022-07-26T05:20:57.685Z,0.50
2022-07-26T05:23:25.383Z,0.70
2022-07-26T05:25:53.251Z,0.77
2022-07-26T05:28:20.977Z,0.70
2022-07-26T05:30:48.794Z,0.73
2022-07-26T05:33:16.835Z,0.50
2022-07-26T05:35:48.048Z,0.53
2022-07-26T05:38:15.789Z,0.57
2022-07-26T05:40:48.590Z,0.63
2022-07-26T05:43:18.425Z,0.70
2022-07-26T05:45:46.206Z,0.70
2022-07-26T05:48:14.170Z,0.77
2022-07-26T05:50:41.885Z,0.60
2022-07-26T05:53:10.615Z,0.70
2022-07-26T05:55:38.322Z,1.02
2022-07-26T05:58:06.010Z,0.80
2022-07-26T06:00:33.889Z,1.40
2022-07-26T06:03:21.526Z,0.70
2022-07-26T06:05:53.257Z,0.90
2022-07-26T06:08:22.257Z,0.70
2022-07-26T06:10:50.025Z,0.68
2022-07-26T06:13:17.814Z,0.70
2022-07-26T06:15:45.890Z,0.50
2022-07-26T06:18:13.642Z,0.40
2022-07-26T06:20:44.678Z,0.80
2022-07-26T06:23:12.598Z,0.57
2022-07-26T06:25:40.266Z,0.40
2022-07-26T06:28:08.879Z,0.85
2022-07-26T06:30:36.919Z,0.75
2022-07-26T06:33:04.929Z,0.60
2022-07-26T06:35:34.328Z,0.43
2022-07-26T06:38:02.279Z,0.60
2022-07-26T06:40:30.006Z,0.70
2022-07-26T06:43:02.621Z,0.60
2022-07-26T06:45:32.134Z,0.70
2022-07-26T06:47:59.916Z,0.57
2022-07-26T06:50:27.688Z,0.70
2022-07-26T06:52:55.341Z,1.25
2022-07-26T06:55:23.137Z,0.60
2022-07-26T06:57:50.852Z,0.50
2022-07-26T07:00:18.938Z,0.70
2022-07-26T07:02:46.843Z,0.60
2022-07-26T07:05:14.559Z,0.85
2022-07-26T07:07:42.350Z,1.10
2022-07-26T07:10:10.647Z,1.13
2022-07-26T07:12:40.828Z,1.60
2022-07-26T07:15:08.714Z,1.00
2022-07-26T07:17:36.659Z,0.90
2022-07-26T07:20:05.831Z,0.77
2022-07-26T07:22:33.631Z,0.90
2022-07-26T07:25:01.414Z,0.80
2022-07-26T07:27:30.701Z,0.55
2022-07-26T07:29:58.490Z,0.90
2022-07-26T07:32:26.377Z,0.88
2022-07-26T07:34:54.276Z,0.52
2022-07-26T07:37:21.948Z,0.90
2022-07-26T07:39:50.939Z,0.90
2022-07-26T07:42:19.520Z,0.70
2022-07-26T07:44:47.406Z,0.80
2022-07-26T07:47:15.196Z,0.60
2022-07-26T07:49:43.165Z,0.70
2022-07-26T07:52:10.827Z,1.02
2022-07-26T07:54:38.614Z,0.60
2022-07-26T07:57:06.341Z,0.70
2022-07-26T07:59:34.092Z,0.90
2022-07-26T08:02:07.008Z,1.08
2022-07-26T08:04:34.842Z,0.93
2022-07-26T08:07:02.654Z,1.00
2022-07-26T08:09:30.347Z,1.00
2022-07-26T08:12:01.858Z,0.80
2022-07-26T08:14:29.905Z,0.80
2022-07-26T08:16:57.682Z,0.90
2022-07-26T08:19:31.030Z,1.27
2022-07-26T08:22:09.774Z,1.10
2022-07-26T08:24:37.543Z,1.35
2022-07-26T08:27:05.249Z,1.30
2022-07-26T08:29:33.055Z,0.73
2022-07-26T08:32:01.082Z,1.17
2022-07-26T08:34:28.889Z,0.82
2022-07-26T08:37:15.939Z,1.13
2022-07-26T08:39:44.347Z,1.27
2022-07-26T08:42:16.058Z,1.33
2022-07-26T08:44:47.048Z,2.13
2022-07-26T08:47:15.216Z,1.20
2022-07-26T08:49:43.058Z,1.50
2022-07-26T08:52:11.178Z,1.80
2022-07-26T08:54:43.189Z,1.60
2022-07-26T08:57:10.950Z,1.40
2022-07-26T08:59:38.639Z,1.50
2022-07-26T09:02:07.295Z,1.50
2022-07-26T09:04:41.610Z,1.60
2022-07-26T09:07:18.521Z,1.80
2022-07-26T09:10:12.247Z,2.35
2022-07-26T09:12:40.136Z,1.88
2022-07-26T09:15:08.506Z,1.88
2022-07-26T09:17:39.898Z,1.92
2022-07-26T09:20:09.082Z,1.43
2022-07-26T09:22:37.525Z,1.77
2022-07-26T09:25:06.090Z,1.70
2022-07-26T09:27:37.140Z,1.40
2022-07-26T09:30:08.544Z,1.83
2022-07-26T09:32:36.994Z,1.77
2022-07-26T09:35:45.285Z,1.33
2022-07-26T09:38:12.702Z,1.73
2022-07-26T09:40:40.446Z,1.20
2022-07-26T09:43:09.896Z,1.48
2022-07-26T09:45:37.981Z,1.60
2022-07-26T09:48:05.777Z,1.27
2022-07-26T09:50:33.638Z,1.30
2022-07-26T09:53:04.694Z,1.23
2022-07-26T09:55:42.521Z,1.40
2022-07-26T09:58:15.817Z,1.23
2022-07-26T10:00:46.393Z,1.40
2022-07-26T10:03:14.113Z,1.50
2022-07-26T10:05:41.981Z,1.15
2022-07-26T10:08:09.788Z,1.10
2022-07-26T10:10:40.324Z,1.20
2022-07-26T10:13:08.279Z,1.13
2022-07-26T10:15:36.177Z,1.67
2022-07-26T10:18:05.186Z,1.43
2022-07-26T10:20:41.914Z,1.58
2022-07-26T10:23:38.843Z,1.58
2022-07-26T10:26:07.394Z,1.40
2022-07-26T10:28:37.748Z,1.20
2022-07-26T10:31:25.534Z,1.23
2022-07-26T10:33:53.874Z,1.00
2022-07-26T10:36:27.852Z,1.20
2022-07-26T10:38:59.201Z,1.10
2022-07-26T10:41:36.688Z,1.00
2022-07-26T10:44:13.919Z,1.17
2022-07-26T10:46:57.025Z,0.85
2022-07-26T10:49:34.685Z,1.30
2022-07-26T10:52:08.170Z,1.05
2022-07-26T10:54:56.141Z,0.82
2022-07-26T10:57:44.170Z,1.05
2022-07-26T11:00:15.958Z,0.90
2022-07-26T11:02:57.050Z,1.00
2022-07-26T11:05:28.969Z,0.80
2022-07-26T11:07:57.914Z,0.98
2022-07-26T11:10:34.896Z,1.00
2022-07-26T11:13:25.812Z,1.20
2022-07-26T11:16:03.479Z,0.88
2022-07-26T11:18:37.366Z,0.80
2022-07-26T11:21:10.886Z,0.90
2022-07-26T11:23:38.981Z,1.10
2022-07-26T11:26:06.660Z,0.90
2022-07-26T11:28:55.395Z,1.33
2022-07-26T11:31:51.284Z,1.00
2022-07-26T11:34:23.638Z,1.10
2022-07-26T11:36:54.931Z,1.00
2022-07-26T11:39:26.377Z,1.10
2022-07-26T11:42:00.676Z,1.00
2022-07-26T11:44:29.393Z,1.10
2022-07-26T11:46:58.081Z,1.02
2022-07-26T11:49:48.966Z,1.20
2022-07-26T11:52:14.282Z,0.80
2022-07-26T11:54:45.887Z,1.30
2022-07-26T11:57:13.700Z,0.90
2022-07-26T11:59:41.494Z,0.85
2022-07-26T12:02:09.702Z,0.90
2022-07-26T12:04:38.627Z,1.10
2022-07-26T12:07:12.904Z,1.27
2022-07-26T12:09:41.285Z,0.70
2022-07-26T12:12:10.177Z,1.38
2022-07-26T12:14:38.470Z,1.10
2022-07-26T12:17:15.829Z,0.90
2022-07-26T12:19:43.985Z,1.30
2022-07-26T12:22:19.176Z,1.23
2022-07-26T12:24:47.948Z,1.10
2022-07-26T12:27:25.799Z,0.80
2022-07-26T12:29:56.913Z,4.05
2022-07-26T12:32:25.303Z,1.10
2022-07-26T12:35:03.080Z,1.10
2022-07-26T12:37:39.360Z,1.17
2022-07-26T12:40:09.541Z,1.33
2022-07-26T12:42:38.994Z,1.02
2022-07-26T12:45:10.276Z,1.20
2022-07-26T12:47:38.508Z,1.15
2022-07-26T12:50:06.779Z,1.00
2022-07-26T12:52:34.487Z,1.13
2022-07-26T12:55:02.581Z,0.85
2022-07-26T12:57:30.387Z,1.10
2022-07-26T12:59:58.180Z,1.77
2022-07-26T13:02:25.887Z,1.38
2022-07-26T13:04:58.258Z,1.40
2022-07-26T13:07:27.739Z,1.02
2022-07-26T13:10:22.596Z,1.10
2022-07-26T13:12:43.394Z,1.33
2022-07-26T13:15:11.184Z,1.25
2022-07-26T13:17:38.811Z,1.70
2022-07-26T13:20:06.875Z,1.33
2022-07-26T13:22:34.545Z,1.20
2022-07-26T13:25:08.619Z,1.00
2022-07-26T13:27:39.156Z,1.00
2022-07-26T13:30:09.435Z,1.10
2022-07-26T13:32:38.327Z,0.88
2022-07-26T13:35:06.243Z,0.80
2022-07-26T13:37:33.978Z,1.23
2022-07-26T13:40:01.802Z,1.00
2022-07-26T13:42:30.582Z,0.80
2022-07-26T13:44:58.287Z,0.65
2022-07-26T13:47:26.046Z,1.02
2022-07-26T13:49:53.688Z,1.03
2022-07-26T13:52:21.429Z,1.20
2022-07-26T13:54:49.174Z,0.73
2022-07-26T13:57:16.961Z,0.90
2022-07-26T13:59:44.681Z,1.17
2022-07-26T14:02:12.402Z,0.90
2022-07-26T14:04:40.274Z,1.48
2022-07-26T14:07:07.907Z,0.70
2022-07-26T14:09:36.715Z,0.80
2022-07-26T14:12:04.701Z,0.65
2022-07-26T14:14:33.168Z,0.70
2022-07-26T14:17:00.898Z,0.70
2022-07-26T14:19:29.675Z,0.90
2022-07-26T14:21:59.899Z,1.05
2022-07-26T14:24:29.595Z,0.90
2022-07-26T14:26:59.515Z,0.88
2022-07-26T14:29:28.289Z,0.77
2022-07-26T14:31:56.068Z,0.70
2022-07-26T14:34:24.667Z,0.73
2022-07-26T14:36:52.459Z,0.90
2022-07-26T14:39:20.193Z,0.63
2022-07-26T14:41:48.109Z,0.77
2022-07-26T14:44:15.857Z,0.90
2022-07-26T14:46:43.989Z,0.80
2022-07-26T14:49:11.803Z,0.70
2022-07-26T14:54:24.603Z,1.20
2022-07-26T14:59:37.435Z,1.00
2022-07-26T15:02:06.080Z,0.70
2022-07-26T15:04:34.068Z,0.80
2022-07-26T15:07:01.723Z,0.63
2022-07-26T15:09:32.478Z,0.52
2022-07-26T15:12:00.186Z,0.60
2022-07-26T15:14:27.818Z,0.70
2022-07-26T15:16:55.572Z,0.60
2022-07-26T15:19:25.745Z,0.70
2022-07-26T15:21:54.702Z,0.80
2022-07-26T15:24:23.651Z,0.70
2022-07-26T15:26:52.206Z,0.95
2022-07-26T15:29:19.870Z,0.70
2022-07-26T15:31:48.681Z,0.68
2022-07-26T15:34:16.422Z,0.73
2022-07-26T15:36:44.110Z,0.88
2022-07-26T15:39:17.116Z,0.90
2022-07-26T15:41:46.174Z,1.00
2022-07-26T15:44:14.334Z,0.60
2022-07-26T15:46:45.796Z,0.67
2022-07-26T15:49:16.068Z,0.70
2022-07-26T15:51:46.373Z,0.70
2022-07-26T15:54:16.094Z,0.60
2022-07-26T15:56:43.996Z,0.50
2022-07-26T15:59:11.977Z,0.60
2022-07-26T16:01:39.716Z,0.50
2022-07-26T16:04:07.614Z,0.50
2022-07-26T16:06:35.510Z,0.60
2022-07-26T16:09:16.610Z,0.98
2022-07-26T16:11:45.253Z,0.50
2022-07-26T16:14:12.887Z,0.60
2022-07-26T16:16:40.878Z,0.50
2022-07-26T16:19:08.921Z,0.40
2022-07-26T16:21:37.742Z,0.70
2022-07-26T16:24:07.511Z,0.50
2022-07-26T16:26:35.761Z,0.60
2022-07-26T16:29:05.575Z,0.55
2022-07-26T16:31:33.381Z,0.40
2022-07-26T16:34:01.196Z,0.60
2022-07-26T16:36:29.435Z,0.43
2022-07-26T16:38:57.341Z,0.57
2022-07-26T16:41:25.001Z,0.60
2022-07-26T16:43:53.073Z,0.60
2022-07-26T16:46:20.852Z,0.40
2022-07-26T16:48:48.944Z,0.50
2022-07-26T16:51:17.049Z,0.50
2022-07-26T16:53:45.539Z,0.40
2022-07-26T16:56:13.323Z,0.75
2022-07-26T16:58:41.116Z,0.70
2022-07-26T17:01:09.009Z,0.60
2022-07-26T17:03:36.853Z,0.90
2022-07-26T17:06:06.846Z,0.70
2022-07-26T17:08:36.091Z,0.70
2022-07-26T17:11:04.064Z,0.80
2022-07-26T17:13:31.921Z,1.20
2022-07-26T17:15:59.698Z,0.80
2022-07-26T17:18:27.482Z,0.70
2022-07-26T17:20:55.807Z,0.80
2022-07-26T17:23:23.569Z,0.80
2022-07-26T17:25:51.424Z,0.90
2022-07-26T17:28:19.068Z,0.80
2022-07-26T17:30:46.799Z,0.73
2022-07-26T17:33:14.585Z,0.70
2022-07-26T17:35:43.442Z,0.60
2022-07-26T17:38:11.125Z,0.70
2022-07-26T17:40:38.911Z,0.82
2022-07-26T17:43:06.529Z,0.57
2022-07-26T17:45:36.524Z,0.43
2022-07-26T17:48:06.347Z,0.52
2022-07-26T17:50:37.123Z,0.40
2022-07-26T17:53:05.757Z,0.52
2022-07-26T17:55:33.847Z,0.45
2022-07-26T17:58:01.586Z,0.53
2022-07-26T18:00:29.671Z,0.50
2022-07-26T18:02:58.037Z,0.60
2022-07-26T18:05:33.111Z,0.50
2022-07-26T18:08:02.963Z,0.45
2022-07-26T18:10:30.633Z,0.65
2022-07-26T18:12:58.539Z,0.50
2022-07-26T18:15:26.381Z,0.70
2022-07-26T18:17:54.608Z,0.68
2022-07-26T18:20:24.414Z,0.70
2022-07-26T18:22:53.917Z,0.50
2022-07-26T18:25:25.371Z,0.60
2022-07-26T18:28:04.686Z,0.80
2022-07-26T18:30:35.141Z,0.57
2022-07-26T18:33:02.901Z,0.73
2022-07-26T18:35:33.002Z,0.88
2022-07-26T18:38:04.139Z,0.63
2022-07-26T18:40:32.610Z,0.77
2022-07-26T18:43:00.404Z,0.60
2022-07-26T18:45:29.091Z,0.47
2022-07-26T18:47:56.749Z,0.60
2022-07-26T18:50:27.706Z,0.70
2022-07-26T18:53:00.046Z,0.50
2022-07-26T18:55:31.694Z,0.63
2022-07-26T18:58:12.224Z,0.75
2022-07-26T19:00:41.823Z,0.82
2022-07-26T19:03:10.701Z,0.70
2022-07-26T19:05:38.522Z,0.50
2022-07-26T19:08:06.887Z,0.60
2022-07-26T19:10:34.662Z,0.57
2022-07-26T19:13:04.732Z,0.77
2022-07-26T19:15:36.396Z,0.50
2022-07-26T19:18:16.299Z,0.50
2022-07-26T19:20:47.711Z,0.52
2022-07-26T19:23:15.544Z,0.52
2022-07-26T19:25:43.597Z,0.50
2022-07-26T19:28:11.357Z,0.63
2022-07-26T19:30:39.128Z,0.57
2022-07-26T19:33:06.879Z,0.60
2022-07-26T19:35:34.673Z,0.57
2022-07-26T19:38:02.329Z,0.77
2022-07-26T19:40:30.916Z,0.82
2022-07-26T19:42:58.542Z,0.88
2022-07-26T19:45:27.333Z,0.60
2022-07-26T19:47:55.569Z,0.80
2022-07-26T19:50:23.415Z,0.60
2022-07-26T19:52:52.274Z,0.68
2022-07-26T19:55:20.022Z,0.70
2022-07-26T19:57:47.673Z,0.70
2022-07-26T20:00:15.570Z,0.60
2022-07-26T20:02:43.256Z,0.60
2022-07-26T20:05:11.737Z,1.00
2022-07-26T20:07:39.488Z,0.95
2022-07-26T20:10:07.635Z,0.70
2022-07-26T20:12:37.490Z,0.75
2022-07-26T20:15:05.732Z,0.55
2022-07-26T20:17:35.693Z,0.77
2022-07-26T20:20:06.663Z,0.87
2022-07-26T20:22:34.426Z,0.80
2022-07-26T20:25:02.282Z,0.63
2022-07-26T20:27:30.015Z,0.70
2022-07-26T20:30:01.072Z,0.50
2022-07-26T20:32:29.082Z,0.60
2022-07-26T20:34:56.756Z,0.68
2022-07-26T20:37:24.514Z,0.80
2022-07-26T20:39:52.259Z,0.60
2022-07-26T20:42:21.629Z,0.65
2022-07-26T20:44:49.828Z,0.57
2022-07-26T20:47:17.538Z,0.40
2022-07-26T20:49:45.511Z,1.45
2022-07-26T20:52:13.241Z,0.60
2022-07-26T20:54:40.875Z,0.50
2022-07-26T20:57:08.632Z,0.50
2022-07-26T20:59:36.342Z,0.98
2022-07-26T21:02:04.209Z,0.85
2022-07-26T21:04:32.448Z,0.52
2022-07-26T21:07:00.228Z,0.98
2022-07-26T21:09:30.069Z,0.67
2022-07-26T21:11:57.806Z,0.80
2022-07-26T21:14:25.519Z,0.95
2022-07-26T21:16:53.211Z,0.90
2022-07-26T21:19:20.999Z,0.82
2022-07-26T21:21:48.624Z,0.60
2022-07-26T21:24:16.322Z,0.65
2022-07-26T21:26:45.530Z,0.60
2022-07-26T21:29:13.789Z,0.82
2022-07-26T21:31:41.854Z,0.88
2022-07-26T21:34:10.313Z,0.70
2022-07-26T21:36:40.492Z,0.60
2022-07-26T21:39:08.837Z,0.80
2022-07-26T21:41:36.822Z,0.70
2022-07-26T21:44:04.697Z,0.60
2022-07-26T21:46:33.770Z,0.70
2022-07-26T21:49:01.565Z,0.80
2022-07-26T21:51:30.810Z,1.08
2022-07-26T21:53:58.564Z,0.80
2022-07-26T21:56:29.239Z,0.70
2022-07-26T21:58:57.255Z,0.80
2022-07-26T22:01:26.407Z,0.90
2022-07-26T22:03:54.157Z,0.70
2022-07-26T22:06:21.802Z,0.80
2022-07-26T22:08:49.553Z,0.90
2022-07-26T22:11:17.180Z,1.00
2022-07-26T22:13:45.419Z,0.70
2022-07-26T22:16:13.095Z,0.77
2022-07-26T22:18:40.908Z,0.90
2022-07-26T22:21:08.550Z,1.00
2022-07-26T22:23:36.252Z,0.70
2022-07-26T22:26:04.635Z,0.70
2022-07-26T22:28:33.565Z,0.90
2022-07-26T22:31:01.373Z,1.13
2022-07-26T22:33:29.103Z,0.80
2022-07-26T22:35:56.814Z,0.70
2022-07-26T22:38:24.630Z,0.60
2022-07-26T22:40:52.505Z,0.77
2022-07-26T22:43:20.175Z,0.70
2022-07-26T22:45:47.977Z,1.33
2022-07-26T22:48:15.677Z,0.80
2022-07-26T22:50:44.310Z,0.73
2022-07-26T22:53:12.001Z,0.70
2022-07-26T22:55:39.703Z,0.90
2022-07-26T22:58:07.350Z,1.08
2022-07-26T23:00:35.193Z,0.80
2022-07-26T23:03:02.961Z,1.45
2022-07-26T23:05:38.311Z,0.80
2022-07-26T23:11:03.108Z,1.08
2022-07-26T23:13:30.843Z,0.63
2022-07-26T23:16:01.199Z,0.80
2022-07-26T23:18:30.348Z,1.30
2022-07-26T23:20:58.036Z,0.77
2022-07-26T23:23:29.349Z,0.68
2022-07-26T23:25:57.825Z,0.82
2022-07-26T23:28:36.272Z,1.10
2022-07-26T23:31:06.507Z,0.70
2022-07-26T23:33:52.701Z,0.70
2022-07-26T23:36:23.012Z,0.80
2022-07-26T23:38:50.765Z,1.00
2022-07-26T23:41:19.242Z,1.17
2022-07-26T23:43:47.024Z,1.48
2022-07-26T23:46:14.804Z,1.10
2022-07-26T23:48:42.756Z,0.70
2022-07-26T23:51:10.562Z,0.80
2022-07-26T23:53:38.219Z,0.98
2022-07-26T23:56:06.155Z,0.77
2022-07-26T23:58:33.855Z,0.70
